Denderleeuw, Belgium
Current Conditions -  °F | °C
As of 12:50 PM on Thursday 29 Jan 2015 (Local Time) from EBBR Reporting Station
Broken Clouds Broken Clouds  
Wind Chill: 31°   Ceiling: 1700
Heat Index: 41°   Visibility: 6mi
Dew Point: 34°   Wind: 24mph
Humidity: 76%   Direction: 220°SW
Pressure: 29.12"   Gusts: NA
Location:  50.89°N, 4.08°E
Report Text: EBBR 291150Z 22021KT 9999 BKN017 05/01 Q0986 TEMPO 23018G32KT
Loading
Personal Weather Stations






























Interactive Weather Map New forecast layout! Learn more

10-Day Weather Forecast

Advertisements
Track Severe Weather on mobile